createdAt,value
2022-08-18T00:00:14.359Z,33.20
2022-08-18T00:03:13.732Z,33.20
2022-08-18T00:05:56.480Z,33.20
2022-08-18T00:08:25.071Z,33.20
2022-08-18T00:10:53.972Z,33.20
2022-08-18T00:13:24.081Z,33.10
2022-08-18T00:15:52.659Z,33.10
2022-08-18T00:18:21.468Z,33.20
2022-08-18T00:20:50.280Z,33.20
2022-08-18T00:23:19.084Z,33.30
2022-08-18T00:25:49.951Z,33.30
2022-08-18T00:28:19.504Z,33.40
2022-08-18T00:30:54.401Z,33.50
2022-08-18T00:33:24.059Z,33.50
2022-08-18T00:35:52.880Z,33.40
2022-08-18T00:38:23.268Z,33.50
2022-08-18T00:40:56.824Z,33.50
2022-08-18T00:43:39.872Z,33.40
2022-08-18T00:46:15.545Z,33.30
2022-08-18T00:48:48.470Z,33.30
2022-08-18T00:51:28.775Z,33.40
2022-08-18T00:54:04.104Z,33.30
2022-08-18T00:56:43.966Z,33.20
2022-08-18T00:59:27.196Z,33.20
2022-08-18T01:02:02.920Z,33.10
2022-08-18T01:04:39.124Z,33.10
2022-08-18T01:07:20.599Z,33.00
2022-08-18T01:09:51.019Z,33.10
2022-08-18T01:12:45.857Z,33.00
2022-08-18T01:15:27.549Z,33.00
2022-08-18T01:18:21.933Z,33.00
2022-08-18T01:21:16.044Z,33.00
2022-08-18T01:23:48.729Z,33.00
2022-08-18T01:26:19.528Z,33.00
2022-08-18T01:28:50.008Z,33.00
2022-08-18T01:31:38.293Z,33.00
2022-08-18T01:34:09.720Z,32.90
2022-08-18T01:36:41.892Z,32.90
2022-08-18T01:39:14.676Z,32.80
2022-08-18T01:42:04.767Z,32.80
2022-08-18T01:44:34.015Z,32.70
2022-08-18T01:47:02.559Z,32.70
2022-08-18T01:49:31.165Z,32.70
2022-08-18T01:51:59.927Z,32.70
2022-08-18T01:54:30.148Z,32.70
2022-08-18T01:56:59.338Z,32.70
2022-08-18T01:59:28.333Z,32.70
2022-08-18T02:02:00.170Z,32.70
2022-08-18T02:04:37.139Z,32.70
2022-08-18T02:07:11.925Z,32.60
2022-08-18T02:09:44.653Z,32.70
2022-08-18T02:12:14.857Z,32.70
2022-08-18T02:14:43.945Z,32.70
2022-08-18T02:17:14.818Z,32.70
2022-08-18T02:19:47.835Z,32.70
2022-08-18T02:22:20.784Z,32.70
2022-08-18T02:24:51.221Z,32.70
2022-08-18T02:27:20.042Z,32.60
2022-08-18T02:29:48.655Z,32.60
2022-08-18T02:32:17.197Z,32.60
2022-08-18T02:34:46.279Z,32.60
2022-08-18T02:37:15.690Z,32.60
2022-08-18T02:39:45.216Z,32.50
2022-08-18T02:42:18.548Z,32.50
2022-08-18T02:44:47.129Z,32.50
2022-08-18T02:47:16.041Z,32.50
2022-08-18T02:49:44.760Z,32.40
2022-08-18T02:52:13.631Z,32.40
2022-08-18T02:54:42.231Z,32.40
2022-08-18T02:57:13.441Z,32.40
2022-08-18T02:59:47.292Z,32.40
2022-08-18T03:02:16.638Z,32.30
2022-08-18T03:04:45.895Z,32.30
2022-08-18T03:07:15.545Z,32.20
2022-08-18T03:09:44.598Z,32.20
2022-08-18T03:12:13.544Z,32.10
2022-08-18T03:14:43.675Z,32.10
2022-08-18T03:17:14.911Z,32.10
2022-08-18T03:19:46.794Z,32.10
2022-08-18T03:22:28.243Z,32.00
2022-08-18T03:24:58.760Z,32.00
2022-08-18T03:27:28.110Z,32.00
2022-08-18T03:29:58.726Z,32.00
2022-08-18T03:32:27.494Z,32.00
2022-08-18T03:34:56.330Z,32.00
2022-08-18T03:37:24.901Z,32.00
2022-08-18T03:39:53.786Z,32.00
2022-08-18T03:42:22.981Z,32.00
2022-08-18T03:44:52.433Z,32.00
2022-08-18T03:47:22.336Z,32.00
2022-08-18T03:49:51.290Z,32.00
2022-08-18T03:52:19.831Z,32.00
2022-08-18T03:54:48.551Z,32.00
2022-08-18T03:57:17.316Z,32.00
2022-08-18T03:59:46.273Z,31.90
2022-08-18T04:02:15.445Z,31.90
2022-08-18T04:04:45.586Z,31.90
2022-08-18T04:07:17.540Z,31.90
2022-08-18T04:09:47.113Z,31.90
2022-08-18T04:12:17.702Z,31.90
2022-08-18T04:14:50.090Z,31.90
2022-08-18T04:17:25.223Z,31.90
2022-08-18T04:19:57.492Z,32.00
2022-08-18T04:22:26.822Z,32.00
2022-08-18T04:24:55.855Z,32.00
2022-08-18T04:27:26.631Z,32.10
2022-08-18T04:29:56.756Z,32.10
2022-08-18T04:32:30.260Z,32.20
2022-08-18T04:35:02.927Z,32.30
2022-08-18T04:37:33.202Z,32.30
2022-08-18T04:40:08.763Z,32.40
2022-08-18T04:42:38.542Z,32.40
2022-08-18T04:45:12.964Z,32.60
2022-08-18T04:47:43.213Z,32.70
2022-08-18T04:50:14.835Z,32.70
2022-08-18T04:53:02.114Z,32.80
2022-08-18T04:55:30.919Z,32.80
2022-08-18T04:57:59.703Z,32.80
2022-08-18T05:00:28.315Z,32.80
2022-08-18T05:02:58.181Z,32.90
2022-08-18T05:05:28.523Z,32.80
2022-08-18T05:07:58.080Z,32.90
2022-08-18T05:10:26.658Z,32.90
2022-08-18T05:12:55.791Z,33.00
2022-08-18T05:15:24.465Z,33.00
2022-08-18T05:17:53.336Z,33.00
2022-08-18T05:20:23.267Z,33.10
2022-08-18T05:22:53.177Z,33.10
2022-08-18T05:25:21.729Z,33.10
2022-08-18T05:27:50.589Z,33.20
2022-08-18T05:30:19.341Z,33.30
2022-08-18T05:32:50.472Z,33.30
2022-08-18T05:35:26.228Z,33.40
2022-08-18T05:38:20.031Z,33.30
2022-08-18T05:41:13.824Z,33.30
2022-08-18T05:43:52.070Z,33.40
2022-08-18T05:46:31.924Z,33.40
2022-08-18T05:49:00.798Z,33.50
2022-08-18T05:51:39.417Z,33.50
2022-08-18T05:54:28.188Z,33.60
2022-08-18T05:57:05.100Z,33.70
2022-08-18T05:59:38.245Z,33.80
2022-08-18T06:02:17.077Z,33.90
2022-08-18T06:04:52.655Z,34.00
2022-08-18T06:07:37.162Z,34.20
2022-08-18T06:10:11.667Z,34.20
2022-08-18T06:12:47.045Z,34.30
2022-08-18T06:15:24.234Z,34.30
2022-08-18T06:18:22.037Z,34.40
2022-08-18T06:21:29.459Z,34.50
2022-08-18T06:24:10.871Z,34.50
2022-08-18T06:26:51.477Z,34.60
2022-08-18T06:29:42.075Z,34.80
2022-08-18T06:32:27.681Z,34.90
2022-08-18T06:35:18.216Z,34.90
2022-08-18T06:38:20.701Z,35.10
2022-08-18T06:40:50.054Z,35.20
2022-08-18T06:43:20.409Z,35.20
2022-08-18T06:45:53.122Z,35.30
2022-08-18T06:48:33.699Z,35.40
2022-08-18T06:51:04.999Z,35.40
2022-08-18T06:53:58.554Z,35.50
2022-08-18T06:56:37.030Z,35.60
2022-08-18T06:59:26.370Z,35.70
2022-08-18T07:02:01.629Z,35.90
2022-08-18T07:05:01.777Z,36.20
2022-08-18T07:07:40.297Z,36.80
2022-08-18T07:10:33.207Z,37.20
2022-08-18T07:13:20.649Z,37.70
2022-08-18T07:15:51.845Z,38.00
2022-08-18T07:18:28.619Z,38.40
2022-08-18T07:21:01.498Z,38.80
2022-08-18T07:23:35.840Z,39.00
2022-08-18T07:26:11.845Z,39.30
2022-08-18T07:28:46.848Z,39.50
2022-08-18T07:31:26.825Z,39.70
2022-08-18T07:34:02.620Z,39.80
2022-08-18T07:36:47.633Z,39.80
2022-08-18T07:39:29.645Z,39.90
2022-08-18T07:42:10.969Z,40.20
2022-08-18T07:44:52.748Z,40.70
2022-08-18T07:47:33.045Z,41.40
2022-08-18T07:50:22.877Z,42.00
2022-08-18T07:53:07.382Z,42.50
2022-08-18T07:55:37.693Z,43.00
2022-08-18T07:58:26.127Z,43.40
2022-08-18T08:01:03.333Z,43.80
2022-08-18T08:03:53.043Z,44.20
2022-08-18T08:06:29.968Z,44.60
2022-08-18T08:09:21.126Z,44.80
2022-08-18T08:11:57.835Z,44.90
2022-08-18T08:14:42.592Z,44.90
2022-08-18T08:17:25.742Z,44.90
2022-08-18T08:20:10.440Z,45.00
2022-08-18T08:22:52.209Z,45.20
2022-08-18T08:25:47.912Z,45.40
2022-08-18T08:28:35.072Z,45.70
2022-08-18T08:31:36.248Z,45.90
2022-08-18T08:34:14.984Z,46.10
2022-08-18T08:36:49.146Z,46.30
2022-08-18T08:39:25.157Z,46.60
2022-08-18T08:42:30.977Z,46.80
2022-08-18T08:44:59.862Z,46.90
2022-08-18T08:47:37.861Z,47.00
2022-08-18T08:50:13.276Z,47.10
2022-08-18T08:52:56.697Z,47.20
2022-08-18T08:55:32.211Z,47.20
2022-08-18T08:58:26.608Z,47.10
2022-08-18T09:00:57.827Z,47.00
2022-08-18T09:03:50.673Z,47.00
2022-08-18T09:06:36.135Z,47.10
2022-08-18T09:09:41.037Z,47.20
2022-08-18T09:12:42.141Z,47.40
2022-08-18T09:16:13.883Z,47.60
2022-08-18T09:19:07.787Z,47.90
2022-08-18T09:21:48.001Z,47.90
2022-08-18T09:24:27.424Z,48.00
2022-08-18T09:27:24.255Z,48.00
2022-08-18T09:29:57.469Z,48.10
2022-08-18T09:32:59.899Z,48.10
2022-08-18T09:36:10.598Z,48.10
2022-08-18T09:39:10.320Z,48.20
2022-08-18T09:41:50.766Z,48.30
2022-08-18T09:45:00.927Z,48.40
2022-08-18T09:48:00.112Z,48.50
2022-08-18T09:50:58.923Z,48.60
2022-08-18T09:54:07.978Z,48.60
2022-08-18T09:57:20.924Z,48.60
2022-08-18T10:00:28.264Z,48.60
2022-08-18T10:03:25.420Z,48.50
2022-08-18T10:06:20.814Z,48.60
2022-08-18T10:09:36.314Z,48.40
2022-08-18T10:12:24.210Z,48.60
2022-08-18T10:15:36.960Z,48.80
2022-08-18T10:18:40.751Z,49.10
2022-08-18T10:21:18.871Z,49.50
2022-08-18T10:24:21.755Z,49.80
2022-08-18T10:27:15.278Z,49.90
2022-08-18T10:29:59.155Z,50.00
2022-08-18T10:32:54.723Z,49.80
2022-08-18T10:36:11.146Z,49.80
2022-08-18T10:38:49.349Z,49.30
2022-08-18T10:41:30.703Z,48.80
2022-08-18T10:44:20.806Z,48.20
2022-08-18T10:46:54.272Z,47.70
2022-08-18T10:49:27.688Z,47.10
2022-08-18T10:52:35.209Z,46.60
2022-08-18T10:59:16.583Z,45.60
2022-08-18T11:02:13.454Z,45.20
2022-08-18T11:04:58.955Z,44.90
2022-08-18T11:10:57.724Z,44.40
2022-08-18T11:13:39.111Z,44.10
2022-08-18T11:16:28.893Z,44.00
2022-08-18T11:19:07.511Z,43.90
2022-08-18T11:21:43.865Z,43.70
2022-08-18T11:24:18.449Z,43.60
2022-08-18T11:26:53.194Z,43.50
2022-08-18T11:29:32.437Z,43.30
2022-08-18T11:32:10.365Z,43.20
2022-08-18T11:34:51.938Z,43.00
2022-08-18T11:37:28.117Z,42.90
2022-08-18T11:41:10.627Z,42.80
2022-08-18T11:43:39.053Z,42.70
2022-08-18T11:46:29.954Z,42.50
2022-08-18T11:49:16.618Z,42.30
2022-08-18T11:52:25.009Z,41.90
2022-08-18T11:55:16.229Z,41.40
2022-08-18T11:57:58.758Z,40.90
2022-08-18T12:01:01.426Z,40.60
2022-08-18T12:03:43.455Z,40.40
2022-08-18T12:06:26.612Z,40.20
2022-08-18T12:09:02.326Z,40.00
2022-08-18T12:11:34.904Z,39.90
2022-08-18T12:14:30.726Z,39.90
2022-08-18T12:16:59.768Z,39.80
2022-08-18T12:19:31.434Z,39.80
2022-08-18T12:22:18.533Z,39.70
2022-08-18T12:24:48.199Z,39.70
2022-08-18T12:27:22.193Z,39.60
2022-08-18T12:29:52.888Z,39.60
2022-08-18T12:32:48.722Z,39.70
2022-08-18T12:35:16.111Z,39.70
2022-08-18T12:37:59.433Z,39.70
2022-08-18T12:40:29.617Z,39.70
2022-08-18T12:42:58.455Z,39.60
2022-08-18T12:45:31.153Z,39.60
2022-08-18T12:48:04.115Z,39.50
2022-08-18T12:50:39.171Z,39.50
2022-08-18T12:53:30.508Z,39.50
2022-08-18T12:56:10.688Z,39.50
2022-08-18T12:58:40.731Z,39.50
2022-08-18T13:01:09.535Z,39.40
2022-08-18T13:03:38.918Z,39.40
2022-08-18T13:06:12.562Z,39.30
2022-08-18T13:08:48.162Z,39.30
2022-08-18T13:11:23.817Z,39.20
2022-08-18T13:13:57.183Z,39.30
2022-08-18T13:16:53.748Z,39.30
2022-08-18T13:19:23.668Z,39.30
2022-08-18T13:21:53.155Z,39.20
2022-08-18T13:24:27.063Z,39.20
2022-08-18T13:26:56.803Z,39.20
2022-08-18T13:29:25.654Z,39.30
2022-08-18T13:31:58.176Z,39.30
2022-08-18T13:34:30.080Z,39.20
2022-08-18T13:36:59.003Z,39.10
2022-08-18T13:39:34.087Z,39.10
2022-08-18T13:42:21.663Z,39.00
2022-08-18T13:44:55.122Z,39.00
2022-08-18T13:47:29.342Z,38.90
2022-08-18T13:49:59.985Z,38.90
2022-08-18T13:52:35.637Z,38.90
2022-08-18T13:55:13.609Z,39.10
2022-08-18T13:57:49.738Z,39.30
2022-08-18T14:00:29.597Z,39.50
2022-08-18T14:03:03.466Z,39.60
2022-08-18T14:05:50.835Z,39.80
2022-08-18T14:08:21.281Z,39.90
2022-08-18T14:10:57.664Z,40.00
2022-08-18T14:13:26.625Z,40.10
2022-08-18T14:15:59.093Z,40.20
2022-08-18T14:18:30.977Z,40.10
2022-08-18T14:21:21.761Z,40.20
2022-08-18T14:24:10.182Z,40.10
2022-08-18T14:26:57.608Z,40.10
2022-08-18T14:29:46.063Z,40.00
2022-08-18T14:32:18.043Z,39.90
2022-08-18T14:34:51.163Z,39.80
2022-08-18T14:37:27.914Z,39.80
2022-08-18T14:39:56.516Z,39.70
2022-08-18T14:42:41.501Z,39.60
2022-08-18T14:45:31.220Z,39.40
2022-08-18T14:48:06.471Z,39.30
2022-08-18T14:50:37.107Z,39.20
2022-08-18T14:53:06.961Z,39.10
2022-08-18T14:55:37.774Z,39.10
2022-08-18T14:58:08.974Z,39.00
2022-08-18T15:00:49.869Z,39.10
2022-08-18T15:03:31.196Z,39.00
2022-08-18T15:06:04.673Z,39.00
2022-08-18T15:08:35.778Z,39.10
2022-08-18T15:11:11.661Z,39.20
2022-08-18T15:13:46.572Z,39.20
2022-08-18T15:16:17.343Z,39.30
2022-08-18T15:18:48.146Z,39.30
2022-08-18T15:21:38.565Z,39.30
2022-08-18T15:24:26.366Z,39.30
2022-08-18T15:26:58.039Z,39.20
2022-08-18T15:29:33.269Z,39.20
2022-08-18T15:32:05.583Z,39.30
2022-08-18T15:34:45.975Z,39.30
2022-08-18T15:37:19.815Z,39.30
2022-08-18T15:39:51.887Z,39.10
2022-08-18T15:42:25.029Z,39.10
2022-08-18T15:44:55.185Z,38.90
2022-08-18T15:47:25.497Z,38.80
2022-08-18T15:49:54.964Z,38.80
2022-08-18T15:52:26.205Z,38.80
2022-08-18T15:54:57.097Z,38.80
2022-08-18T15:57:39.851Z,38.80
2022-08-18T16:00:12.409Z,38.80
2022-08-18T16:02:44.767Z,38.90
2022-08-18T16:05:18.256Z,38.90
2022-08-18T16:07:47.652Z,39.00
2022-08-18T16:10:19.177Z,39.00
2022-08-18T16:12:48.916Z,39.10
2022-08-18T16:15:23.524Z,39.10
2022-08-18T16:17:55.050Z,39.00
2022-08-18T16:20:25.401Z,39.00
2022-08-18T16:22:54.748Z,39.00
2022-08-18T16:25:23.292Z,39.00
2022-08-18T16:27:53.928Z,39.00
2022-08-18T16:30:27.839Z,39.00
2022-08-18T16:33:01.321Z,39.00
2022-08-18T16:35:31.197Z,39.10
2022-08-18T16:38:04.486Z,39.00
2022-08-18T16:40:33.296Z,39.00
2022-08-18T16:43:01.948Z,39.00
2022-08-18T16:45:33.632Z,39.10
2022-08-18T16:48:02.724Z,39.00
2022-08-18T16:50:31.451Z,39.00
2022-08-18T16:52:59.985Z,38.90
2022-08-18T16:55:29.014Z,38.90
2022-08-18T16:58:15.833Z,38.90
2022-08-18T17:01:03.746Z,38.90
2022-08-18T17:03:49.948Z,38.90
2022-08-18T17:06:20.877Z,38.90
2022-08-18T17:08:49.449Z,38.90
2022-08-18T17:11:20.082Z,38.90
2022-08-18T17:13:52.103Z,38.90
2022-08-18T17:16:24.952Z,38.80
2022-08-18T17:18:55.798Z,38.80
2022-08-18T17:24:07.630Z,38.70
2022-08-18T17:26:49.516Z,38.60
2022-08-18T17:29:23.256Z,38.60
2022-08-18T17:32:04.053Z,38.50
2022-08-18T17:34:39.458Z,38.40
2022-08-18T17:37:11.857Z,38.40
2022-08-18T17:39:51.724Z,38.30
2022-08-18T17:42:29.255Z,38.20
2022-08-18T17:45:04.038Z,38.20
2022-08-18T17:47:46.623Z,38.10
2022-08-18T17:50:54.593Z,38.10
2022-08-18T17:53:23.832Z,38.10
2022-08-18T17:56:00.920Z,38.10
2022-08-18T17:58:40.377Z,38.00
2022-08-18T18:01:11.164Z,38.00
2022-08-18T18:03:44.310Z,37.90
2022-08-18T18:06:31.578Z,37.80
2022-08-18T18:09:03.916Z,37.70
2022-08-18T18:11:37.532Z,37.60
2022-08-18T18:14:29.239Z,37.60
2022-08-18T18:17:07.392Z,37.50
2022-08-18T18:19:38.150Z,37.30
2022-08-18T18:22:11.327Z,37.30
2022-08-18T18:24:54.609Z,37.20
2022-08-18T18:27:32.017Z,37.20
2022-08-18T18:30:06.046Z,37.20
2022-08-18T18:32:38.767Z,37.10
2022-08-18T18:35:27.176Z,37.10
2022-08-18T18:38:00.984Z,37.00
2022-08-18T18:40:35.927Z,36.90
2022-08-18T18:43:23.684Z,36.90
2022-08-18T18:46:29.930Z,36.80
2022-08-18T18:49:18.915Z,36.80
2022-08-18T18:52:12.311Z,36.70
2022-08-18T18:55:03.496Z,36.60
2022-08-18T18:57:45.587Z,36.60
2022-08-18T19:00:23.133Z,36.60
2022-08-18T19:03:05.147Z,36.50
2022-08-18T19:05:41.153Z,36.50
2022-08-18T19:08:26.350Z,36.50
2022-08-18T19:11:05.684Z,36.50
2022-08-18T19:13:43.061Z,36.50
2022-08-18T19:16:23.413Z,36.40
2022-08-18T19:19:37.737Z,36.40
2022-08-18T19:22:06.424Z,36.40
2022-08-18T19:24:53.456Z,36.30
2022-08-18T19:27:30.438Z,36.30
2022-08-18T19:30:07.323Z,36.20
2022-08-18T19:32:44.199Z,36.20
2022-08-18T19:35:19.709Z,36.20
2022-08-18T19:38:09.758Z,36.20
2022-08-18T19:40:48.592Z,36.10
2022-08-18T19:43:26.721Z,36.10
2022-08-18T19:46:11.050Z,36.10
2022-08-18T19:48:51.442Z,36.00
2022-08-18T19:51:29.554Z,36.00
2022-08-18T19:54:22.253Z,35.90
2022-08-18T19:57:23.149Z,35.80
2022-08-18T20:00:18.340Z,35.70
2022-08-18T20:03:42.970Z,35.70
2022-08-18T20:06:37.083Z,35.60
2022-08-18T20:09:40.489Z,35.60
2022-08-18T20:12:27.201Z,35.60
2022-08-18T20:15:13.732Z,35.50
2022-08-18T20:18:07.911Z,35.50
2022-08-18T20:20:39.375Z,35.50
2022-08-18T20:23:34.823Z,35.50
2022-08-18T20:26:03.468Z,35.40
2022-08-18T20:28:40.799Z,35.40
2022-08-18T20:31:17.898Z,35.40
2022-08-18T20:34:12.221Z,35.50
2022-08-18T20:36:44.777Z,35.50
2022-08-18T20:39:44.268Z,35.50
2022-08-18T20:42:55.928Z,35.50
2022-08-18T20:45:35.944Z,35.60
2022-08-18T20:48:33.512Z,35.50
2022-08-18T20:51:12.724Z,35.50
2022-08-18T20:54:13.373Z,35.50
2022-08-18T20:56:48.627Z,35.50
2022-08-18T20:59:24.650Z,35.50
2022-08-18T21:01:58.680Z,35.50
2022-08-18T21:04:49.237Z,35.40
2022-08-18T21:07:36.685Z,35.40
2022-08-18T21:10:19.001Z,35.40
2022-08-18T21:12:53.704Z,35.30
2022-08-18T21:15:28.029Z,35.30
2022-08-18T21:18:04.930Z,35.30
2022-08-18T21:20:35.251Z,35.30
2022-08-18T21:23:11.832Z,35.20
2022-08-18T21:25:53.396Z,35.30
2022-08-18T21:28:26.353Z,35.30
2022-08-18T21:31:28.954Z,35.30
2022-08-18T21:33:56.092Z,35.20
2022-08-18T21:36:31.638Z,35.20
2022-08-18T21:39:07.461Z,35.20
2022-08-18T21:41:46.854Z,35.20
2022-08-18T21:44:22.709Z,35.10
2022-08-18T21:47:05.745Z,35.10
2022-08-18T21:49:35.908Z,35.10
2022-08-18T21:52:05.103Z,35.00
2022-08-18T21:54:35.617Z,35.00
2022-08-18T21:57:22.501Z,35.00
2022-08-18T22:00:25.788Z,35.00
2022-08-18T22:03:19.082Z,35.00
2022-08-18T22:06:00.793Z,35.00
2022-08-18T22:08:33.673Z,35.00
2022-08-18T22:12:00.937Z,35.00
2022-08-18T22:14:55.187Z,35.00
2022-08-18T22:17:43.554Z,35.10
2022-08-18T22:20:47.962Z,35.00
2022-08-18T22:23:50.724Z,35.10
2022-08-18T22:26:25.521Z,35.10
2022-08-18T22:29:11.649Z,35.10
2022-08-18T22:31:44.127Z,35.00
2022-08-18T22:34:16.300Z,35.00
2022-08-18T22:36:52.710Z,35.00
2022-08-18T22:39:27.913Z,34.90
2022-08-18T22:41:57.218Z,34.90
2022-08-18T22:44:26.325Z,34.90
2022-08-18T22:46:54.943Z,34.90
2022-08-18T22:49:24.507Z,34.80
2022-08-18T22:51:56.182Z,34.80
2022-08-18T22:54:26.717Z,34.80
2022-08-18T22:56:57.718Z,34.80
2022-08-18T22:59:27.271Z,34.70
2022-08-18T23:01:57.983Z,34.70
2022-08-18T23:04:27.973Z,34.70
2022-08-18T23:06:57.336Z,34.70
2022-08-18T23:09:31.915Z,34.60
2022-08-18T23:12:04.549Z,34.60
2022-08-18T23:14:34.168Z,34.60
2022-08-18T23:17:05.281Z,34.60
2022-08-18T23:19:35.321Z,34.60
2022-08-18T23:22:06.183Z,34.60
2022-08-18T23:24:36.843Z,34.50
2022-08-18T23:27:07.144Z,34.50
2022-08-18T23:29:36.669Z,34.50
2022-08-18T23:32:06.975Z,34.60
2022-08-18T23:34:37.695Z,34.60
2022-08-18T23:37:07.815Z,34.70
2022-08-18T23:39:39.643Z,34.70
2022-08-18T23:42:13.120Z,34.70
2022-08-18T23:44:43.335Z,34.70
2022-08-18T23:47:11.930Z,34.70
2022-08-18T23:49:40.473Z,34.70
2022-08-18T23:52:09.530Z,34.70
2022-08-18T23:54:39.455Z,34.70
2022-08-18T23:57:08.015Z,34.60
2022-08-18T23:59:36.835Z,34.50
